sensor_id;sensor_type;location;lat;lon;timestamp;pressure;altitude;pressure_sealevel;temperature;humidity
77077;BME280;66003;52.286;104.306;2023-04-15T00:01:44;94909.16;;;12.24;24.07
77077;BME280;66003;52.286;104.306;2023-04-15T00:04:10;94870.38;;;12.51;23.29
77077;BME280;66003;52.286;104.306;2023-04-15T00:06:36;94881.88;;;12.51;23.80
77077;BME280;66003;52.286;104.306;2023-04-15T00:09:04;94790.81;;;11.51;24.20
77077;BME280;66003;52.286;104.306;2023-04-15T00:11:31;94866.97;;;11.91;23.86
77077;BME280;66003;52.286;104.306;2023-04-15T00:13:57;94873.06;;;11.63;24.69
77077;BME280;66003;52.286;104.306;2023-04-15T00:16:24;94840.00;;;11.58;24.67
77077;BME280;66003;52.286;104.306;2023-04-15T00:18:50;94859.53;;;11.59;24.32
77077;BME280;66003;52.286;104.306;2023-04-15T00:21:16;94849.59;;;12.27;23.46
77077;BME280;66003;52.286;104.306;2023-04-15T00:23:42;94836.75;;;13.28;22.49
77077;BME280;66003;52.286;104.306;2023-04-15T00:26:08;94843.91;;;15.57;20.60
77077;BME280;66003;52.286;104.306;2023-04-15T00:28:34;94835.91;;;17.62;19.38
77077;BME280;66003;52.286;104.306;2023-04-15T00:31:01;94799.00;;;19.08;17.50
77077;BME280;66003;52.286;104.306;2023-04-15T00:33:27;94800.81;;;21.06;17.00
77077;BME280;66003;52.286;104.306;2023-04-15T00:35:53;94793.16;;;22.57;15.39
77077;BME280;66003;52.286;104.306;2023-04-15T00:38:19;94791.97;;;22.76;14.46
77077;BME280;66003;52.286;104.306;2023-04-15T00:40:45;94788.44;;;22.72;14.84
77077;BME280;66003;52.286;104.306;2023-04-15T00:43:12;94785.06;;;21.47;14.88
77077;BME280;66003;52.286;104.306;2023-04-15T00:45:38;94787.72;;;21.29;15.22
77077;BME280;66003;52.286;104.306;2023-04-15T00:48:04;94798.97;;;22.55;14.18
77077;BME280;66003;52.286;104.306;2023-04-15T00:50:32;94786.19;;;22.49;14.28
77077;BME280;66003;52.286;104.306;2023-04-15T00:52:58;94781.53;;;22.31;14.48
77077;BME280;66003;52.286;104.306;2023-04-15T00:55:24;94780.78;;;22.27;14.35
77077;BME280;66003;52.286;104.306;2023-04-15T00:57:51;94771.44;;;22.21;14.52
77077;BME280;66003;52.286;104.306;2023-04-15T01:00:17;94771.88;;;22.02;14.79
77077;BME280;66003;52.286;104.306;2023-04-15T01:02:45;94724.44;;;21.89;14.98
77077;BME280;66003;52.286;104.306;2023-04-15T01:05:10;94743.09;;;21.94;14.71
77077;BME280;66003;52.286;104.306;2023-04-15T01:07:36;94737.19;;;21.14;14.75
77077;BME280;66003;52.286;104.306;2023-04-15T01:10:03;94736.50;;;21.42;15.17
77077;BME280;66003;52.286;104.306;2023-04-15T01:12:31;94733.28;;;22.50;14.36
77077;BME280;66003;52.286;104.306;2023-04-15T01:14:58;94689.56;;;23.92;13.46
77077;BME280;66003;52.286;104.306;2023-04-15T01:17:25;94708.50;;;25.39;12.35
77077;BME280;66003;52.286;104.306;2023-04-15T01:19:51;94684.44;;;25.53;12.38
77077;BME280;66003;52.286;104.306;2023-04-15T01:22:18;94694.56;;;25.30;12.46
77077;BME280;66003;52.286;104.306;2023-04-15T01:24:54;94680.84;;;26.26;11.84
77077;BME280;66003;52.286;104.306;2023-04-15T01:27:24;94690.59;;;26.08;12.21
77077;BME280;66003;52.286;104.306;2023-04-15T01:29:50;94656.78;;;26.57;11.57
77077;BME280;66003;52.286;104.306;2023-04-15T01:32:17;94659.34;;;25.35;12.45
77077;BME280;66003;52.286;104.306;2023-04-15T01:35:02;94676.88;;;26.31;11.85
77077;BME280;66003;52.286;104.306;2023-04-15T01:37:46;94651.91;;;27.37;10.84
77077;BME280;66003;52.286;104.306;2023-04-15T01:40:12;94646.34;;;28.47;10.79
77077;BME280;66003;52.286;104.306;2023-04-15T01:42:41;94615.97;;;28.80;10.05
77077;BME280;66003;52.286;104.306;2023-04-15T01:45:08;94638.34;;;28.53;10.51
77077;BME280;66003;52.286;104.306;2023-04-15T01:47:36;94629.03;;;28.63;9.80
77077;BME280;66003;52.286;104.306;2023-04-15T01:50:04;94579.72;;;27.56;10.08
77077;BME280;66003;52.286;104.306;2023-04-15T01:52:31;94628.63;;;28.07;10.14
77077;BME280;66003;52.286;104.306;2023-04-15T01:54:59;94630.41;;;27.97;11.00
77077;BME280;66003;52.286;104.306;2023-04-15T01:57:26;94613.66;;;26.98;10.91
77077;BME280;66003;52.286;104.306;2023-04-15T01:59:53;94627.81;;;27.12;10.80
77077;BME280;66003;52.286;104.306;2023-04-15T02:02:21;94622.94;;;25.85;11.60
77077;BME280;66003;52.286;104.306;2023-04-15T02:04:48;94578.41;;;24.88;12.15
77077;BME280;66003;52.286;104.306;2023-04-15T02:07:16;94597.66;;;23.41;12.74
77077;BME280;66003;52.286;104.306;2023-04-15T02:09:43;94539.44;;;22.76;13.06
77077;BME280;66003;52.286;104.306;2023-04-15T02:12:12;94620.31;;;22.03;13.75
77077;BME280;66003;52.286;104.306;2023-04-15T02:14:39;94584.28;;;21.42;13.84
77077;BME280;66003;52.286;104.306;2023-04-15T02:17:07;94575.75;;;20.76;14.70
77077;BME280;66003;52.286;104.306;2023-04-15T02:19:34;94576.38;;;20.16;14.91
77077;BME280;66003;52.286;104.306;2023-04-15T02:22:02;94599.00;;;19.65;15.44
77077;BME280;66003;52.286;104.306;2023-04-15T02:24:29;94592.88;;;19.17;15.65
77077;BME280;66003;52.286;104.306;2023-04-15T02:26:57;94606.84;;;18.75;16.09
77077;BME280;66003;52.286;104.306;2023-04-15T02:29:24;94583.78;;;18.14;16.21
77077;BME280;66003;52.286;104.306;2023-04-15T02:31:52;94532.34;;;18.07;16.30
77077;BME280;66003;52.286;104.306;2023-04-15T02:34:19;94581.22;;;19.13;16.26
77077;BME280;66003;52.286;104.306;2023-04-15T02:36:46;94552.47;;;19.49;15.58
77077;BME280;66003;52.286;104.306;2023-04-15T02:39:15;94568.19;;;20.02;15.18
77077;BME280;66003;52.286;104.306;2023-04-15T02:41:51;94562.78;;;20.09;15.49
77077;BME280;66003;52.286;104.306;2023-04-15T02:44:19;94561.91;;;19.80;15.27
77077;BME280;66003;52.286;104.306;2023-04-15T02:46:46;94557.38;;;19.33;15.64
77077;BME280;66003;52.286;104.306;2023-04-15T02:49:17;94572.28;;;18.58;16.42
77077;BME280;66003;52.286;104.306;2023-04-15T02:51:44;94574.66;;;18.63;16.11
77077;BME280;66003;52.286;104.306;2023-04-15T02:54:19;94526.88;;;18.85;15.75
77077;BME280;66003;52.286;104.306;2023-04-15T02:56:46;94527.03;;;18.18;16.34
77077;BME280;66003;52.286;104.306;2023-04-15T02:59:13;94525.78;;;18.08;16.51
77077;BME280;66003;52.286;104.306;2023-04-15T03:01:41;94548.94;;;17.72;16.94
77077;BME280;66003;52.286;104.306;2023-04-15T03:04:08;94538.53;;;17.44;17.16
77077;BME280;66003;52.286;104.306;2023-04-15T03:06:35;94544.72;;;17.75;17.26
77077;BME280;66003;52.286;104.306;2023-04-15T03:09:03;94539.69;;;17.73;17.20
77077;BME280;66003;52.286;104.306;2023-04-15T03:11:31;94504.09;;;17.38;17.43
77077;BME280;66003;52.286;104.306;2023-04-15T03:13:58;94524.38;;;17.24;17.52
77077;BME280;66003;52.286;104.306;2023-04-15T03:16:26;94537.94;;;16.75;18.28
77077;BME280;66003;52.286;104.306;2023-04-15T03:18:54;94506.84;;;15.94;19.07
77077;BME280;66003;52.286;104.306;2023-04-15T03:21:21;94530.53;;;15.84;19.11
77077;BME280;66003;52.286;104.306;2023-04-15T03:23:49;94525.28;;;15.34;19.76
77077;BME280;66003;52.286;104.306;2023-04-15T03:26:27;94505.31;;;14.80;20.17
77077;BME280;66003;52.286;104.306;2023-04-15T03:28:56;94534.38;;;14.75;20.25
77077;BME280;66003;52.286;104.306;2023-04-15T03:31:24;94524.59;;;14.51;20.25
77077;BME280;66003;52.286;104.306;2023-04-15T03:33:51;94517.72;;;14.38;20.32
77077;BME280;66003;52.286;104.306;2023-04-15T03:36:19;94498.31;;;14.44;20.82
77077;BME280;66003;52.286;104.306;2023-04-15T03:38:46;94491.19;;;14.52;20.35
77077;BME280;66003;52.286;104.306;2023-04-15T03:41:15;94484.28;;;14.51;20.03
77077;BME280;66003;52.286;104.306;2023-04-15T03:43:42;94495.28;;;14.15;20.98
77077;BME280;66003;52.286;104.306;2023-04-15T03:46:10;94466.22;;;14.52;20.81
77077;BME280;66003;52.286;104.306;2023-04-15T03:48:37;94439.97;;;14.80;20.40
77077;BME280;66003;52.286;104.306;2023-04-15T03:51:05;94463.03;;;15.16;20.41
77077;BME280;66003;52.286;104.306;2023-04-15T03:53:32;94432.22;;;15.13;20.07
77077;BME280;66003;52.286;104.306;2023-04-15T03:55:59;94460.91;;;15.64;19.66
77077;BME280;66003;52.286;104.306;2023-04-15T03:58:27;94346.56;;;15.38;19.39
77077;BME280;66003;52.286;104.306;2023-04-15T04:00:54;94451.72;;;16.59;19.36
77077;BME280;66003;52.286;104.306;2023-04-15T04:03:22;94408.53;;;16.82;18.45
77077;BME280;66003;52.286;104.306;2023-04-15T04:05:50;94428.78;;;17.29;18.08
77077;BME280;66003;52.286;104.306;2023-04-15T04:08:17;94424.53;;;17.28;18.18
77077;BME280;66003;52.286;104.306;2023-04-15T04:10:45;94436.75;;;17.52;17.96
77077;BME280;66003;52.286;104.306;2023-04-15T04:13:13;94435.44;;;17.68;17.72
77077;BME280;66003;52.286;104.306;2023-04-15T04:15:41;94410.34;;;17.68;17.62
77077;BME280;66003;52.286;104.306;2023-04-15T04:18:09;94421.25;;;17.79;17.79
77077;BME280;66003;52.286;104.306;2023-04-15T04:20:37;94393.00;;;17.73;17.76
77077;BME280;66003;52.286;104.306;2023-04-15T04:23:04;94392.94;;;17.65;17.29
77077;BME280;66003;52.286;104.306;2023-04-15T04:25:32;94386.53;;;17.44;17.77
77077;BME280;66003;52.286;104.306;2023-04-15T04:27:59;94411.38;;;17.60;17.64
77077;BME280;66003;52.286;104.306;2023-04-15T04:30:27;94398.22;;;17.55;17.87
77077;BME280;66003;52.286;104.306;2023-04-15T04:32:55;94363.00;;;17.48;18.31
77077;BME280;66003;52.286;104.306;2023-04-15T04:35:22;94385.66;;;17.70;18.08
77077;BME280;66003;52.286;104.306;2023-04-15T04:37:50;94372.63;;;17.82;17.52
77077;BME280;66003;52.286;104.306;2023-04-15T04:40:18;94387.22;;;17.74;17.67
77077;BME280;66003;52.286;104.306;2023-04-15T04:42:45;94392.69;;;17.78;17.80
77077;BME280;66003;52.286;104.306;2023-04-15T04:45:13;94383.38;;;18.19;17.50
77077;BME280;66003;52.286;104.306;2023-04-15T04:47:40;94353.81;;;17.93;17.46
77077;BME280;66003;52.286;104.306;2023-04-15T04:50:08;94348.75;;;17.88;17.53
77077;BME280;66003;52.286;104.306;2023-04-15T04:52:36;94376.19;;;18.41;17.15
77077;BME280;66003;52.286;104.306;2023-04-15T04:55:03;94369.00;;;18.59;17.30
77077;BME280;66003;52.286;104.306;2023-04-15T04:57:31;94278.16;;;17.96;17.03
77077;BME280;66003;52.286;104.306;2023-04-15T04:59:58;94351.50;;;18.46;16.91
77077;BME280;66003;52.286;104.306;2023-04-15T05:02:25;94364.22;;;18.42;17.17
77077;BME280;66003;52.286;104.306;2023-04-15T05:04:53;94357.63;;;18.36;17.67
77077;BME280;66003;52.286;104.306;2023-04-15T05:07:20;94329.59;;;18.65;17.04
77077;BME280;66003;52.286;104.306;2023-04-15T05:09:48;94361.50;;;19.07;16.86
77077;BME280;66003;52.286;104.306;2023-04-15T05:12:15;94352.97;;;19.05;16.82
77077;BME280;66003;52.286;104.306;2023-04-15T05:14:44;94356.97;;;18.57;17.32
77077;BME280;66003;52.286;104.306;2023-04-15T05:17:12;94356.72;;;18.76;17.40
77077;BME280;66003;52.286;104.306;2023-04-15T05:19:40;94356.00;;;18.93;16.84
77077;BME280;66003;52.286;104.306;2023-04-15T05:22:08;94343.91;;;18.66;17.08
77077;BME280;66003;52.286;104.306;2023-04-15T05:24:35;94322.69;;;18.79;16.97
77077;BME280;66003;52.286;104.306;2023-04-15T05:27:02;94334.19;;;18.58;17.33
77077;BME280;66003;52.286;104.306;2023-04-15T05:29:29;94345.03;;;18.58;17.29
77077;BME280;66003;52.286;104.306;2023-04-15T05:31:57;94334.72;;;18.23;17.59
77077;BME280;66003;52.286;104.306;2023-04-15T05:34:24;94336.38;;;17.87;17.59
77077;BME280;66003;52.286;104.306;2023-04-15T05:36:51;94325.81;;;17.30;17.77
77077;BME280;66003;52.286;104.306;2023-04-15T05:39:19;94338.59;;;17.33;17.78
77077;BME280;66003;52.286;104.306;2023-04-15T05:41:47;94332.28;;;16.85;18.74
77077;BME280;66003;52.286;104.306;2023-04-15T05:44:14;94312.03;;;16.69;18.54
77077;BME280;66003;52.286;104.306;2023-04-15T05:46:42;94354.66;;;16.59;18.39
77077;BME280;66003;52.286;104.306;2023-04-15T05:49:09;94341.56;;;16.61;18.79
77077;BME280;66003;52.286;104.306;2023-04-15T05:51:37;94338.94;;;16.95;18.43
77077;BME280;66003;52.286;104.306;2023-04-15T05:54:04;94346.41;;;17.09;18.10
77077;BME280;66003;52.286;104.306;2023-04-15T05:56:32;94306.00;;;17.16;18.30
77077;BME280;66003;52.286;104.306;2023-04-15T05:58:59;94335.47;;;17.31;17.99
77077;BME280;66003;52.286;104.306;2023-04-15T06:01:27;94321.25;;;17.38;18.13
77077;BME280;66003;52.286;104.306;2023-04-15T06:03:55;94327.75;;;17.30;18.25
77077;BME280;66003;52.286;104.306;2023-04-15T06:06:22;94313.75;;;17.58;17.77
77077;BME280;66003;52.286;104.306;2023-04-15T06:08:50;94291.06;;;17.66;17.66
77077;BME280;66003;52.286;104.306;2023-04-15T06:11:19;94321.44;;;18.00;17.77
77077;BME280;66003;52.286;104.306;2023-04-15T06:13:47;94301.50;;;17.67;17.79
77077;BME280;66003;52.286;104.306;2023-04-15T06:16:15;94287.22;;;17.67;17.50
77077;BME280;66003;52.286;104.306;2023-04-15T06:18:42;94323.69;;;17.91;18.07
77077;BME280;66003;52.286;104.306;2023-04-15T06:21:10;94337.47;;;18.26;17.40
77077;BME280;66003;52.286;104.306;2023-04-15T06:23:37;94324.81;;;17.86;18.09
77077;BME280;66003;52.286;104.306;2023-04-15T06:26:07;94346.13;;;17.98;17.70
77077;BME280;66003;52.286;104.306;2023-04-15T06:28:34;94318.16;;;17.77;17.83
77077;BME280;66003;52.286;104.306;2023-04-15T06:31:02;94375.16;;;18.09;17.70
77077;BME280;66003;52.286;104.306;2023-04-15T06:33:29;94385.47;;;17.92;17.82
77077;BME280;66003;52.286;104.306;2023-04-15T06:35:58;94337.28;;;17.61;17.82
77077;BME280;66003;52.286;104.306;2023-04-15T06:38:26;94386.75;;;18.09;17.62
77077;BME280;66003;52.286;104.306;2023-04-15T06:40:53;94398.38;;;18.61;17.76
77077;BME280;66003;52.286;104.306;2023-04-15T06:43:20;94406.38;;;19.12;17.46
77077;BME280;66003;52.286;104.306;2023-04-15T06:45:48;94411.84;;;19.26;16.92
77077;BME280;66003;52.286;104.306;2023-04-15T06:48:15;94399.84;;;19.24;17.75
77077;BME280;66003;52.286;104.306;2023-04-15T06:50:43;94389.75;;;19.13;17.50
77077;BME280;66003;52.286;104.306;2023-04-15T06:53:10;94416.09;;;19.20;17.42
77077;BME280;66003;52.286;104.306;2023-04-15T06:55:38;94424.56;;;19.08;17.88
77077;BME280;66003;52.286;104.306;2023-04-15T06:58:06;94431.22;;;18.59;19.86
77077;BME280;66003;52.286;104.306;2023-04-15T07:00:33;94444.28;;;18.06;21.15
77077;BME280;66003;52.286;104.306;2023-04-15T07:03:01;94428.06;;;17.32;22.94
77077;BME280;66003;52.286;104.306;2023-04-15T07:05:30;94357.72;;;16.32;24.09
77077;BME280;66003;52.286;104.306;2023-04-15T07:07:58;94468.19;;;16.51;24.79
77077;BME280;66003;52.286;104.306;2023-04-15T07:10:26;94479.63;;;16.21;25.20
77077;BME280;66003;52.286;104.306;2023-04-15T07:12:53;94472.50;;;15.87;25.88
77077;BME280;66003;52.286;104.306;2023-04-15T07:15:21;94449.78;;;15.27;26.34
77077;BME280;66003;52.286;104.306;2023-04-15T07:17:48;94469.53;;;14.96;26.77
77077;BME280;66003;52.286;104.306;2023-04-15T07:20:15;94511.97;;;14.87;27.39
77077;BME280;66003;52.286;104.306;2023-04-15T07:22:43;94484.88;;;14.44;27.83
77077;BME280;66003;52.286;104.306;2023-04-15T07:25:10;94523.88;;;14.54;27.78
77077;BME280;66003;52.286;104.306;2023-04-15T07:27:38;94531.06;;;14.34;28.39
77077;BME280;66003;52.286;104.306;2023-04-15T07:30:06;94487.03;;;14.07;28.36
77077;BME280;66003;52.286;104.306;2023-04-15T07:32:33;94515.56;;;14.28;28.25
77077;BME280;66003;52.286;104.306;2023-04-15T07:35:00;94507.84;;;14.26;28.16
77077;BME280;66003;52.286;104.306;2023-04-15T07:37:29;94573.91;;;14.43;28.19
77077;BME280;66003;52.286;104.306;2023-04-15T07:39:56;94575.88;;;14.30;28.74
77077;BME280;66003;52.286;104.306;2023-04-15T07:42:24;94576.94;;;14.41;28.33
77077;BME280;66003;52.286;104.306;2023-04-15T07:44:51;94560.09;;;14.29;28.61
77077;BME280;66003;52.286;104.306;2023-04-15T07:47:18;94585.03;;;14.73;28.04
77077;BME280;66003;52.286;104.306;2023-04-15T07:49:46;94595.78;;;14.57;28.31
77077;BME280;66003;52.286;104.306;2023-04-15T07:52:13;94594.16;;;14.25;28.56
77077;BME280;66003;52.286;104.306;2023-04-15T07:54:40;94614.78;;;14.21;28.72
77077;BME280;66003;52.286;104.306;2023-04-15T07:57:08;94604.97;;;14.13;28.65
77077;BME280;66003;52.286;104.306;2023-04-15T07:59:35;94628.22;;;13.93;28.92
77077;BME280;66003;52.286;104.306;2023-04-15T08:02:03;94607.69;;;13.72;29.00
77077;BME280;66003;52.286;104.306;2023-04-15T08:04:30;94645.97;;;13.69;29.34
77077;BME280;66003;52.286;104.306;2023-04-15T08:06:58;94638.34;;;13.71;29.33
77077;BME280;66003;52.286;104.306;2023-04-15T08:09:25;94643.13;;;13.38;29.84
77077;BME280;66003;52.286;104.306;2023-04-15T08:11:53;94640.66;;;13.45;29.63
77077;BME280;66003;52.286;104.306;2023-04-15T08:14:20;94656.31;;;13.43;29.63
77077;BME280;66003;52.286;104.306;2023-04-15T08:16:48;94606.03;;;12.67;29.76
77077;BME280;66003;52.286;104.306;2023-04-15T08:19:15;94589.94;;;12.67;29.99
77077;BME280;66003;52.286;104.306;2023-04-15T08:21:42;94637.53;;;12.70;30.23
77077;BME280;66003;52.286;104.306;2023-04-15T08:24:10;94658.41;;;12.89;30.16
77077;BME280;66003;52.286;104.306;2023-04-15T08:26:38;94656.75;;;12.72;30.27
77077;BME280;66003;52.286;104.306;2023-04-15T08:29:06;94656.41;;;12.74;29.90
77077;BME280;66003;52.286;104.306;2023-04-15T08:31:33;94637.00;;;12.32;31.03
77077;BME280;66003;52.286;104.306;2023-04-15T08:34:00;94658.34;;;12.40;30.88
77077;BME280;66003;52.286;104.306;2023-04-15T08:36:28;94646.34;;;12.13;30.94
77077;BME280;66003;52.286;104.306;2023-04-15T08:38:55;94652.31;;;11.77;31.31
77077;BME280;66003;52.286;104.306;2023-04-15T08:41:24;94702.19;;;12.03;31.11
77077;BME280;66003;52.286;104.306;2023-04-15T08:43:56;94660.34;;;11.69;31.67
77077;BME280;66003;52.286;104.306;2023-04-15T08:46:23;94696.94;;;11.65;31.64
77077;BME280;66003;52.286;104.306;2023-04-15T08:48:51;94721.88;;;11.48;31.36
77077;BME280;66003;52.286;104.306;2023-04-15T08:51:22;94734.16;;;11.19;31.17
77077;BME280;66003;52.286;104.306;2023-04-15T08:53:51;94745.63;;;10.82;32.57
77077;BME280;66003;52.286;104.306;2023-04-15T08:56:24;94687.41;;;10.41;32.16
77077;BME280;66003;52.286;104.306;2023-04-15T08:58:52;94674.41;;;10.05;33.04
77077;BME280;66003;52.286;104.306;2023-04-15T09:01:20;94736.44;;;10.28;33.03
77077;BME280;66003;52.286;104.306;2023-04-15T09:03:48;94728.44;;;10.02;33.23
77077;BME280;66003;52.286;104.306;2023-04-15T09:06:20;94751.53;;;10.24;33.61
77077;BME280;66003;52.286;104.306;2023-04-15T09:08:49;94755.13;;;10.28;32.96
77077;BME280;66003;52.286;104.306;2023-04-15T09:11:17;94742.41;;;9.99;33.06
77077;BME280;66003;52.286;104.306;2023-04-15T09:13:45;94752.91;;;9.78;33.68
77077;BME280;66003;52.286;104.306;2023-04-15T09:16:13;94785.53;;;9.84;34.16
77077;BME280;66003;52.286;104.306;2023-04-15T09:18:41;94809.72;;;9.78;33.92
77077;BME280;66003;52.286;104.306;2023-04-15T09:21:14;94796.28;;;9.44;34.67
77077;BME280;66003;52.286;104.306;2023-04-15T09:23:54;94812.53;;;9.25;35.28
77077;BME280;66003;52.286;104.306;2023-04-15T09:26:38;94810.44;;;9.14;34.50
77077;BME280;66003;52.286;104.306;2023-04-15T09:29:10;94811.41;;;8.64;35.55
77077;BME280;66003;52.286;104.306;2023-04-15T09:31:40;94855.78;;;8.69;36.34
77077;BME280;66003;52.286;104.306;2023-04-15T09:34:08;94824.38;;;8.35;36.56
77077;BME280;66003;52.286;104.306;2023-04-15T09:39:12;94880.94;;;8.27;36.91
77077;BME280;66003;52.286;104.306;2023-04-15T09:41:40;94906.69;;;8.18;36.96
77077;BME280;66003;52.286;104.306;2023-04-15T09:44:24;94914.72;;;7.77;37.62
77077;BME280;66003;52.286;104.306;2023-04-15T09:46:52;94886.84;;;7.60;37.67
77077;BME280;66003;52.286;104.306;2023-04-15T09:49:19;94919.13;;;7.68;37.35
77077;BME280;66003;52.286;104.306;2023-04-15T09:51:47;94954.38;;;7.73;37.79
77077;BME280;66003;52.286;104.306;2023-04-15T09:54:19;94972.00;;;7.69;37.68
77077;BME280;66003;52.286;104.306;2023-04-15T09:56:48;94958.47;;;7.38;38.06
77077;BME280;66003;52.286;104.306;2023-04-15T09:59:16;94981.91;;;7.50;37.52
77077;BME280;66003;52.286;104.306;2023-04-15T10:01:43;94959.00;;;7.08;38.89
77077;BME280;66003;52.286;104.306;2023-04-15T10:04:11;94963.41;;;7.12;38.27
77077;BME280;66003;52.286;104.306;2023-04-15T10:06:39;94967.66;;;7.13;37.68
77077;BME280;66003;52.286;104.306;2023-04-15T10:09:07;95003.47;;;7.16;38.73
77077;BME280;66003;52.286;104.306;2023-04-15T10:11:35;95016.97;;;7.01;39.53
77077;BME280;66003;52.286;104.306;2023-04-15T10:14:02;95000.00;;;6.83;39.58
77077;BME280;66003;52.286;104.306;2023-04-15T10:16:31;94959.53;;;6.35;39.83
77077;BME280;66003;52.286;104.306;2023-04-15T10:19:01;95034.63;;;6.54;40.76
77077;BME280;66003;52.286;104.306;2023-04-15T10:21:30;95005.06;;;6.42;40.11
77077;BME280;66003;52.286;104.306;2023-04-15T10:23:58;95029.50;;;6.39;40.25
77077;BME280;66003;52.286;104.306;2023-04-15T10:26:27;95072.22;;;6.37;40.19
77077;BME280;66003;52.286;104.306;2023-04-15T10:28:56;95054.13;;;6.21;40.55
77077;BME280;66003;52.286;104.306;2023-04-15T10:31:24;95070.22;;;6.29;40.50
77077;BME280;66003;52.286;104.306;2023-04-15T10:33:52;95065.69;;;6.30;41.08
77077;BME280;66003;52.286;104.306;2023-04-15T10:36:27;95088.00;;;6.29;41.22
77077;BME280;66003;52.286;104.306;2023-04-15T10:38:55;95092.38;;;6.14;41.74
77077;BME280;66003;52.286;104.306;2023-04-15T10:41:25;95103.91;;;6.29;40.29
77077;BME280;66003;52.286;104.306;2023-04-15T10:44:03;95107.34;;;6.29;41.62
77077;BME280;66003;52.286;104.306;2023-04-15T10:46:38;95118.47;;;6.31;41.19
77077;BME280;66003;52.286;104.306;2023-04-15T10:49:08;95136.91;;;6.18;41.82
77077;BME280;66003;52.286;104.306;2023-04-15T10:51:38;95096.19;;;5.74;41.58
77077;BME280;66003;52.286;104.306;2023-04-15T10:54:13;95137.38;;;5.96;41.23
77077;BME280;66003;52.286;104.306;2023-04-15T10:56:44;95145.59;;;5.99;41.62
77077;BME280;66003;52.286;104.306;2023-04-15T10:59:12;95135.50;;;6.01;40.70
77077;BME280;66003;52.286;104.306;2023-04-15T11:05:18;95150.03;;;6.04;40.49
77077;BME280;66003;52.286;104.306;2023-04-15T11:07:46;95173.91;;;6.04;38.96
77077;BME280;66003;52.286;104.306;2023-04-15T11:12:45;95184.56;;;5.60;41.20
77077;BME280;66003;52.286;104.306;2023-04-15T11:15:34;95203.44;;;5.48;41.10
77077;BME280;66003;52.286;104.306;2023-04-15T11:20:42;95211.56;;;5.18;43.20
77077;BME280;66003;52.286;104.306;2023-04-15T11:23:11;95196.28;;;5.04;43.48
77077;BME280;66003;52.286;104.306;2023-04-15T11:25:39;95217.97;;;5.01;42.45
77077;BME280;66003;52.286;104.306;2023-04-15T11:28:06;95238.59;;;5.09;43.71
77077;BME280;66003;52.286;104.306;2023-04-15T11:30:35;95236.53;;;4.96;43.97
77077;BME280;66003;52.286;104.306;2023-04-15T11:33:09;95199.06;;;4.69;43.17
77077;BME280;66003;52.286;104.306;2023-04-15T11:35:39;95194.59;;;4.59;44.12
77077;BME280;66003;52.286;104.306;2023-04-15T11:38:09;95263.28;;;4.85;43.66
77077;BME280;66003;52.286;104.306;2023-04-15T11:40:39;95224.78;;;4.18;44.53
77077;BME280;66003;52.286;104.306;2023-04-15T11:43:14;95221.34;;;4.02;46.18
77077;BME280;66003;52.286;104.306;2023-04-15T11:45:58;95257.03;;;4.15;45.83
77077;BME280;66003;52.286;104.306;2023-04-15T11:48:32;95219.50;;;3.72;44.25
77077;BME280;66003;52.286;104.306;2023-04-15T11:51:04;95256.75;;;3.71;46.39
77077;BME280;66003;52.286;104.306;2023-04-15T11:56:20;95286.88;;;3.80;45.22
77077;BME280;66003;52.286;104.306;2023-04-15T11:58:47;95259.34;;;3.40;46.56
77077;BME280;66003;52.286;104.306;2023-04-15T12:01:15;95317.22;;;3.57;45.82
77077;BME280;66003;52.286;104.306;2023-04-15T12:03:44;95290.00;;;3.51;45.54
77077;BME280;66003;52.286;104.306;2023-04-15T12:06:18;95296.81;;;3.42;44.97
77077;BME280;66003;52.286;104.306;2023-04-15T12:11:19;95342.09;;;3.71;44.56
77077;BME280;66003;52.286;104.306;2023-04-15T12:13:49;95234.31;;;2.85;45.57
77077;BME280;66003;52.286;104.306;2023-04-15T12:16:17;95346.03;;;3.69;44.41
77077;BME280;66003;52.286;104.306;2023-04-15T12:18:51;95339.69;;;3.59;45.75
77077;BME280;66003;52.286;104.306;2023-04-15T12:21:21;95332.59;;;3.75;44.05
77077;BME280;66003;52.286;104.306;2023-04-15T12:23:53;95264.28;;;3.16;45.29
77077;BME280;66003;52.286;104.306;2023-04-15T12:26:32;95341.53;;;3.54;46.98
77077;BME280;66003;52.286;104.306;2023-04-15T12:29:04;95356.09;;;3.72;45.42
77077;BME280;66003;52.286;104.306;2023-04-15T12:31:30;95365.56;;;3.57;47.92
77077;BME280;66003;52.286;104.306;2023-04-15T12:33:58;95352.03;;;3.44;46.30
77077;BME280;66003;52.286;104.306;2023-04-15T12:36:26;95364.13;;;3.35;48.21
77077;BME280;66003;52.286;104.306;2023-04-15T12:38:53;95395.69;;;3.67;47.35
77077;BME280;66003;52.286;104.306;2023-04-15T12:41:20;95370.22;;;3.35;47.37
77077;BME280;66003;52.286;104.306;2023-04-15T12:43:49;95398.03;;;3.53;46.81
77077;BME280;66003;52.286;104.306;2023-04-15T12:46:15;95431.56;;;3.52;46.57
77077;BME280;66003;52.286;104.306;2023-04-15T12:48:41;95419.75;;;3.18;51.38
77077;BME280;66003;52.286;104.306;2023-04-15T12:51:08;95412.66;;;2.86;49.96
77077;BME280;66003;52.286;104.306;2023-04-15T12:53:34;95407.88;;;2.78;48.31
77077;BME280;66003;52.286;104.306;2023-04-15T12:56:00;95454.22;;;3.01;47.46
77077;BME280;66003;52.286;104.306;2023-04-15T12:58:27;95469.34;;;2.79;49.75
77077;BME280;66003;52.286;104.306;2023-04-15T13:00:53;95455.69;;;2.87;47.37
77077;BME280;66003;52.286;104.306;2023-04-15T13:03:19;95447.78;;;2.60;49.27
77077;BME280;66003;52.286;104.306;2023-04-15T13:05:45;95423.72;;;2.46;49.15